sensor_id;sensor_type;location;lat;lon;timestamp;temperature;humidity
22065;DHT22;11197;53.110;8.468;2024-01-15T00:00:23;2.30;99.90
22065;DHT22;11197;53.110;8.468;2024-01-15T00:02:49;2.30;99.90
22065;DHT22;11197;53.110;8.468;2024-01-15T00:05:15;2.20;99.90
22065;DHT22;11197;53.110;8.468;2024-01-15T00:07:41;2.30;99.90
22065;DHT22;11197;53.110;8.468;2024-01-15T00:10:07;2.20;99.90
22065;DHT22;11197;53.110;8.468;2024-01-15T00:12:33;2.30;99.90
22065;DHT22;11197;53.110;8.468;2024-01-15T00:14:59;2.20;99.90
22065;DHT22;11197;53.110;8.468;2024-01-15T00:17:25;2.30;99.90
22065;DHT22;11197;53.110;8.468;2024-01-15T00:19:51;2.30;99.90
22065;DHT22;11197;53.110;8.468;2024-01-15T00:22:18;2.30;99.90
22065;DHT22;11197;53.110;8.468;2024-01-15T00:24:44;2.30;99.90
22065;DHT22;11197;53.110;8.468;2024-01-15T00:27:09;2.30;99.90
22065;DHT22;11197;53.110;8.468;2024-01-15T00:29:35;2.30;99.90
22065;DHT22;11197;53.110;8.468;2024-01-15T00:32:01;2.30;99.90
22065;DHT22;11197;53.110;8.468;2024-01-15T00:34:27;2.30;99.90
22065;DHT22;11197;53.110;8.468;2024-01-15T00:36:54;2.40;99.90
22065;DHT22;11197;53.110;8.468;2024-01-15T00:39:20;2.40;99.90
22065;DHT22;11197;53.110;8.468;2024-01-15T00:41:46;2.40;99.90
22065;DHT22;11197;53.110;8.468;2024-01-15T00:44:12;2.40;99.90
22065;DHT22;11197;53.110;8.468;2024-01-15T00:46:46;2.40;99.90
22065;DHT22;11197;53.110;8.468;2024-01-15T00:49:13;2.40;99.90
22065;DHT22;11197;53.110;8.468;2024-01-15T00:51:39;2.40;99.90
22065;DHT22;11197;53.110;8.468;2024-01-15T00:54:06;2.40;99.90
22065;DHT22;11197;53.110;8.468;2024-01-15T00:56:32;2.40;99.90
22065;DHT22;11197;53.110;8.468;2024-01-15T00:58:58;2.40;99.90
22065;DHT22;11197;53.110;8.468;2024-01-15T01:01:24;2.40;99.90
22065;DHT22;11197;53.110;8.468;2024-01-15T01:03:50;2.40;99.90
22065;DHT22;11197;53.110;8.468;2024-01-15T01:06:16;2.40;99.90
22065;DHT22;11197;53.110;8.468;2024-01-15T01:08:42;2.40;99.90
22065;DHT22;11197;53.110;8.468;2024-01-15T01:11:12;2.40;99.90
22065;DHT22;11197;53.110;8.468;2024-01-15T01:13:38;2.40;99.90
22065;DHT22;11197;53.110;8.468;2024-01-15T01:16:04;2.30;99.90
22065;DHT22;11197;53.110;8.468;2024-01-15T01:18:30;2.30;99.90
22065;DHT22;11197;53.110;8.468;2024-01-15T01:20:56;2.30;99.90
22065;DHT22;11197;53.110;8.468;2024-01-15T01:23:22;2.30;99.90
22065;DHT22;11197;53.110;8.468;2024-01-15T01:25:48;2.30;99.90
22065;DHT22;11197;53.110;8.468;2024-01-15T01:28:14;2.30;99.90
22065;DHT22;11197;53.110;8.468;2024-01-15T01:30:40;2.30;99.90
22065;DHT22;11197;53.110;8.468;2024-01-15T01:33:06;2.30;99.90
22065;DHT22;11197;53.110;8.468;2024-01-15T01:35:32;2.30;99.90
22065;DHT22;11197;53.110;8.468;2024-01-15T01:37:58;2.30;99.90
22065;DHT22;11197;53.110;8.468;2024-01-15T01:40:24;2.30;99.90
22065;DHT22;11197;53.110;8.468;2024-01-15T01:42:50;2.30;99.90
22065;DHT22;11197;53.110;8.468;2024-01-15T01:45:16;2.30;99.90
22065;DHT22;11197;53.110;8.468;2024-01-15T01:47:42;2.30;99.90
22065;DHT22;11197;53.110;8.468;2024-01-15T01:50:09;2.30;99.90
22065;DHT22;11197;53.110;8.468;2024-01-15T01:52:35;2.30;99.90
22065;DHT22;11197;53.110;8.468;2024-01-15T01:55:03;2.30;99.90
22065;DHT22;11197;53.110;8.468;2024-01-15T01:57:30;2.20;99.90
22065;DHT22;11197;53.110;8.468;2024-01-15T02:00:17;2.20;99.90
22065;DHT22;11197;53.110;8.468;2024-01-15T02:02:43;2.20;99.90
22065;DHT22;11197;53.110;8.468;2024-01-15T02:05:09;2.20;99.90
22065;DHT22;11197;53.110;8.468;2024-01-15T02:07:36;2.20;99.90
22065;DHT22;11197;53.110;8.468;2024-01-15T02:10:02;2.20;99.90
22065;DHT22;11197;53.110;8.468;2024-01-15T02:12:28;2.20;99.90
22065;DHT22;11197;53.110;8.468;2024-01-15T02:14:54;2.20;99.90
22065;DHT22;11197;53.110;8.468;2024-01-15T02:17:20;2.30;99.90
22065;DHT22;11197;53.110;8.468;2024-01-15T02:19:46;2.30;99.90
22065;DHT22;11197;53.110;8.468;2024-01-15T02:22:12;2.30;99.90
22065;DHT22;11197;53.110;8.468;2024-01-15T02:24:37;2.30;99.90
22065;DHT22;11197;53.110;8.468;2024-01-15T02:27:03;2.30;99.90
22065;DHT22;11197;53.110;8.468;2024-01-15T02:29:30;2.20;99.90
22065;DHT22;11197;53.110;8.468;2024-01-15T02:31:56;2.30;99.90
22065;DHT22;11197;53.110;8.468;2024-01-15T02:34:21;2.30;99.90
22065;DHT22;11197;53.110;8.468;2024-01-15T02:36:47;2.30;99.90
22065;DHT22;11197;53.110;8.468;2024-01-15T02:39:13;2.30;99.90
22065;DHT22;11197;53.110;8.468;2024-01-15T02:41:39;2.30;99.90
22065;DHT22;11197;53.110;8.468;2024-01-15T02:44:05;2.30;99.90
22065;DHT22;11197;53.110;8.468;2024-01-15T02:46:31;2.30;99.90
22065;DHT22;11197;53.110;8.468;2024-01-15T02:48:57;2.30;99.90
22065;DHT22;11197;53.110;8.468;2024-01-15T02:51:23;2.30;99.90
22065;DHT22;11197;53.110;8.468;2024-01-15T02:53:50;2.30;99.90
22065;DHT22;11197;53.110;8.468;2024-01-15T02:56:16;2.30;99.90
22065;DHT22;11197;53.110;8.468;2024-01-15T02:58:42;2.30;99.90
22065;DHT22;11197;53.110;8.468;2024-01-15T03:01:08;2.40;99.90
22065;DHT22;11197;53.110;8.468;2024-01-15T03:03:34;2.30;99.90
22065;DHT22;11197;53.110;8.468;2024-01-15T03:06:01;2.30;99.90
22065;DHT22;11197;53.110;8.468;2024-01-15T03:08:27;2.30;99.90
22065;DHT22;11197;53.110;8.468;2024-01-15T03:10:55;2.30;99.90
22065;DHT22;11197;53.110;8.468;2024-01-15T03:13:20;2.30;99.90
22065;DHT22;11197;53.110;8.468;2024-01-15T03:15:47;2.30;99.90
22065;DHT22;11197;53.110;8.468;2024-01-15T03:18:12;2.30;99.90
22065;DHT22;11197;53.110;8.468;2024-01-15T03:20:39;2.30;99.90
22065;DHT22;11197;53.110;8.468;2024-01-15T03:23:05;2.20;99.90
22065;DHT22;11197;53.110;8.468;2024-01-15T03:25:31;2.20;99.90
22065;DHT22;11197;53.110;8.468;2024-01-15T03:27:57;2.20;99.90
22065;DHT22;11197;53.110;8.468;2024-01-15T03:30:22;2.20;99.90
22065;DHT22;11197;53.110;8.468;2024-01-15T03:32:48;2.20;99.90
22065;DHT22;11197;53.110;8.468;2024-01-15T03:35:15;2.20;99.90
22065;DHT22;11197;53.110;8.468;2024-01-15T03:37:42;2.20;99.90
22065;DHT22;11197;53.110;8.468;2024-01-15T03:40:08;2.20;99.90
22065;DHT22;11197;53.110;8.468;2024-01-15T03:42:34;2.20;99.90
22065;DHT22;11197;53.110;8.468;2024-01-15T03:45:00;2.20;99.90
22065;DHT22;11197;53.110;8.468;2024-01-15T03:47:26;2.20;99.90
22065;DHT22;11197;53.110;8.468;2024-01-15T03:49:52;2.20;99.90
22065;DHT22;11197;53.110;8.468;2024-01-15T03:52:18;2.20;99.90
22065;DHT22;11197;53.110;8.468;2024-01-15T03:54:44;2.20;99.90
22065;DHT22;11197;53.110;8.468;2024-01-15T03:57:10;2.20;99.90
22065;DHT22;11197;53.110;8.468;2024-01-15T03:59:36;2.10;99.90
22065;DHT22;11197;53.110;8.468;2024-01-15T04:02:02;2.20;99.90
22065;DHT22;11197;53.110;8.468;2024-01-15T04:04:28;2.10;99.90
22065;DHT22;11197;53.110;8.468;2024-01-15T04:06:54;2.20;99.90
22065;DHT22;11197;53.110;8.468;2024-01-15T04:09:19;2.20;99.90
22065;DHT22;11197;53.110;8.468;2024-01-15T04:11:48;2.20;99.90
22065;DHT22;11197;53.110;8.468;2024-01-15T04:14:39;2.30;99.90
22065;DHT22;11197;53.110;8.468;2024-01-15T04:17:05;2.30;99.90
22065;DHT22;11197;53.110;8.468;2024-01-15T04:19:31;2.40;99.90
22065;DHT22;11197;53.110;8.468;2024-01-15T04:21:57;2.40;99.90
22065;DHT22;11197;53.110;8.468;2024-01-15T04:24:23;2.40;99.90
22065;DHT22;11197;53.110;8.468;2024-01-15T04:26:49;2.30;99.90
22065;DHT22;11197;53.110;8.468;2024-01-15T04:29:15;2.40;99.90
22065;DHT22;11197;53.110;8.468;2024-01-15T04:31:41;2.40;99.90
22065;DHT22;11197;53.110;8.468;2024-01-15T04:34:07;2.40;99.90
22065;DHT22;11197;53.110;8.468;2024-01-15T04:36:39;2.40;99.90
22065;DHT22;11197;53.110;8.468;2024-01-15T04:39:05;2.40;99.90
22065;DHT22;11197;53.110;8.468;2024-01-15T04:41:31;2.30;99.90
22065;DHT22;11197;53.110;8.468;2024-01-15T04:43:57;2.30;99.90
22065;DHT22;11197;53.110;8.468;2024-01-15T04:46:23;2.30;99.90
22065;DHT22;11197;53.110;8.468;2024-01-15T04:48:49;2.40;99.90
22065;DHT22;11197;53.110;8.468;2024-01-15T04:51:15;2.40;99.90
22065;DHT22;11197;53.110;8.468;2024-01-15T04:53:41;2.40;99.90
22065;DHT22;11197;53.110;8.468;2024-01-15T04:56:07;2.40;99.90
22065;DHT22;11197;53.110;8.468;2024-01-15T04:58:33;2.40;99.90
22065;DHT22;11197;53.110;8.468;2024-01-15T05:00:59;2.40;99.90
22065;DHT22;11197;53.110;8.468;2024-01-15T05:03:25;2.40;99.90
22065;DHT22;11197;53.110;8.468;2024-01-15T05:05:51;2.40;99.90
22065;DHT22;11197;53.110;8.468;2024-01-15T05:08:16;2.40;99.90
22065;DHT22;11197;53.110;8.468;2024-01-15T05:10:43;2.30;99.90
22065;DHT22;11197;53.110;8.468;2024-01-15T05:13:09;2.30;99.90
22065;DHT22;11197;53.110;8.468;2024-01-15T05:15:35;2.40;99.90
22065;DHT22;11197;53.110;8.468;2024-01-15T05:18:00;2.40;99.90
22065;DHT22;11197;53.110;8.468;2024-01-15T05:20:26;2.40;99.90
22065;DHT22;11197;53.110;8.468;2024-01-15T05:22:52;2.30;99.90
22065;DHT22;11197;53.110;8.468;2024-01-15T05:25:18;2.40;99.90
22065;DHT22;11197;53.110;8.468;2024-01-15T05:27:44;2.30;99.90
22065;DHT22;11197;53.110;8.468;2024-01-15T05:30:11;2.30;99.90
22065;DHT22;11197;53.110;8.468;2024-01-15T05:32:37;2.30;99.90
22065;DHT22;11197;53.110;8.468;2024-01-15T05:35:03;2.30;99.90
22065;DHT22;11197;53.110;8.468;2024-01-15T05:37:29;2.30;99.90
22065;DHT22;11197;53.110;8.468;2024-01-15T05:39:55;2.30;99.90
22065;DHT22;11197;53.110;8.468;2024-01-15T05:42:21;2.30;99.90
22065;DHT22;11197;53.110;8.468;2024-01-15T05:44:47;2.30;99.90
22065;DHT22;11197;53.110;8.468;2024-01-15T05:47:13;2.30;99.90
22065;DHT22;11197;53.110;8.468;2024-01-15T05:49:39;2.30;99.90
22065;DHT22;11197;53.110;8.468;2024-01-15T05:52:05;2.30;99.90
22065;DHT22;11197;53.110;8.468;2024-01-15T05:54:31;2.30;99.90
22065;DHT22;11197;53.110;8.468;2024-01-15T05:56:56;2.30;99.90
22065;DHT22;11197;53.110;8.468;2024-01-15T05:59:23;2.30;99.90
22065;DHT22;11197;53.110;8.468;2024-01-15T06:01:48;2.30;99.90
22065;DHT22;11197;53.110;8.468;2024-01-15T06:04:14;2.30;99.90
22065;DHT22;11197;53.110;8.468;2024-01-15T06:06:40;2.30;99.90
22065;DHT22;11197;53.110;8.468;2024-01-15T06:09:06;2.30;99.90
22065;DHT22;11197;53.110;8.468;2024-01-15T06:11:32;2.30;99.90
22065;DHT22;11197;53.110;8.468;2024-01-15T06:13:58;2.30;99.90
22065;DHT22;11197;53.110;8.468;2024-01-15T06:16:26;2.30;99.90
22065;DHT22;11197;53.110;8.468;2024-01-15T06:18:52;2.30;99.90
22065;DHT22;11197;53.110;8.468;2024-01-15T06:21:18;2.30;99.90
22065;DHT22;11197;53.110;8.468;2024-01-15T06:23:43;2.20;99.90
22065;DHT22;11197;53.110;8.468;2024-01-15T06:26:12;2.30;99.90
22065;DHT22;11197;53.110;8.468;2024-01-15T06:28:38;2.30;99.90
22065;DHT22;11197;53.110;8.468;2024-01-15T06:31:04;2.30;99.90
22065;DHT22;11197;53.110;8.468;2024-01-15T06:33:31;2.30;99.90
22065;DHT22;11197;53.110;8.468;2024-01-15T06:35:57;2.30;99.90
22065;DHT22;11197;53.110;8.468;2024-01-15T06:38:23;2.30;99.90
22065;DHT22;11197;53.110;8.468;2024-01-15T06:40:51;2.30;99.90
22065;DHT22;11197;53.110;8.468;2024-01-15T06:43:17;2.30;99.90
22065;DHT22;11197;53.110;8.468;2024-01-15T06:45:44;2.30;99.90
22065;DHT22;11197;53.110;8.468;2024-01-15T06:48:10;2.30;99.90
22065;DHT22;11197;53.110;8.468;2024-01-15T06:50:38;2.30;99.90
22065;DHT22;11197;53.110;8.468;2024-01-15T06:53:04;2.30;99.90
22065;DHT22;11197;53.110;8.468;2024-01-15T06:55:29;2.30;99.90
22065;DHT22;11197;53.110;8.468;2024-01-15T06:57:55;2.30;99.90
22065;DHT22;11197;53.110;8.468;2024-01-15T07:00:21;2.30;99.90
22065;DHT22;11197;53.110;8.468;2024-01-15T07:02:47;2.30;99.90
22065;DHT22;11197;53.110;8.468;2024-01-15T07:05:13;2.30;99.90
22065;DHT22;11197;53.110;8.468;2024-01-15T07:07:38;2.30;99.90
22065;DHT22;11197;53.110;8.468;2024-01-15T07:10:05;2.30;99.90
22065;DHT22;11197;53.110;8.468;2024-01-15T07:12:31;2.30;99.90
22065;DHT22;11197;53.110;8.468;2024-01-15T07:14:57;2.30;99.90
22065;DHT22;11197;53.110;8.468;2024-01-15T07:17:23;2.30;99.90
22065;DHT22;11197;53.110;8.468;2024-01-15T07:19:49;2.30;99.90
22065;DHT22;11197;53.110;8.468;2024-01-15T07:22:15;2.30;99.90
22065;DHT22;11197;53.110;8.468;2024-01-15T07:24:43;2.30;99.90
22065;DHT22;11197;53.110;8.468;2024-01-15T07:27:09;2.40;99.90
22065;DHT22;11197;53.110;8.468;2024-01-15T07:29:35;2.40;99.90
22065;DHT22;11197;53.110;8.468;2024-01-15T07:32:05;2.40;99.90
22065;DHT22;11197;53.110;8.468;2024-01-15T07:34:31;2.40;99.90
22065;DHT22;11197;53.110;8.468;2024-01-15T07:36:57;2.40;99.90
22065;DHT22;11197;53.110;8.468;2024-01-15T07:39:23;2.40;99.90
22065;DHT22;11197;53.110;8.468;2024-01-15T07:41:51;2.40;99.90
22065;DHT22;11197;53.110;8.468;2024-01-15T07:44:17;2.40;99.90
22065;DHT22;11197;53.110;8.468;2024-01-15T07:46:46;2.40;99.90
22065;DHT22;11197;53.110;8.468;2024-01-15T07:49:13;2.50;99.90
22065;DHT22;11197;53.110;8.468;2024-01-15T07:51:39;2.60;99.90
22065;DHT22;11197;53.110;8.468;2024-01-15T07:54:06;2.80;99.90
22065;DHT22;11197;53.110;8.468;2024-01-15T07:56:32;2.80;99.90
22065;DHT22;11197;53.110;8.468;2024-01-15T07:58:59;2.80;99.90
22065;DHT22;11197;53.110;8.468;2024-01-15T08:01:24;2.70;99.90
22065;DHT22;11197;53.110;8.468;2024-01-15T08:03:50;2.70;99.90
22065;DHT22;11197;53.110;8.468;2024-01-15T08:06:17;2.60;99.90
22065;DHT22;11197;53.110;8.468;2024-01-15T08:08:43;2.50;99.90
22065;DHT22;11197;53.110;8.468;2024-01-15T08:11:09;2.50;99.90
22065;DHT22;11197;53.110;8.468;2024-01-15T08:13:34;2.40;99.90
22065;DHT22;11197;53.110;8.468;2024-01-15T08:16:00;2.40;99.90
22065;DHT22;11197;53.110;8.468;2024-01-15T08:18:27;2.40;99.90
22065;DHT22;11197;53.110;8.468;2024-01-15T08:20:53;2.40;99.90
22065;DHT22;11197;53.110;8.468;2024-01-15T08:23:19;2.40;99.90
22065;DHT22;11197;53.110;8.468;2024-01-15T08:25:45;2.30;99.90
22065;DHT22;11197;53.110;8.468;2024-01-15T08:28:11;2.30;99.90
22065;DHT22;11197;53.110;8.468;2024-01-15T08:30:37;2.40;99.90
22065;DHT22;11197;53.110;8.468;2024-01-15T08:33:03;2.30;99.90
22065;DHT22;11197;53.110;8.468;2024-01-15T08:35:28;2.30;99.90
22065;DHT22;11197;53.110;8.468;2024-01-15T08:37:54;2.30;99.90
22065;DHT22;11197;53.110;8.468;2024-01-15T08:40:20;2.30;99.90
22065;DHT22;11197;53.110;8.468;2024-01-15T08:42:46;2.30;99.90
22065;DHT22;11197;53.110;8.468;2024-01-15T08:45:12;2.30;99.90
22065;DHT22;11197;53.110;8.468;2024-01-15T08:47:38;2.30;99.90
22065;DHT22;11197;53.110;8.468;2024-01-15T08:50:05;2.30;99.90
22065;DHT22;11197;53.110;8.468;2024-01-15T08:52:30;2.30;99.90
22065;DHT22;11197;53.110;8.468;2024-01-15T08:54:57;2.30;99.90
22065;DHT22;11197;53.110;8.468;2024-01-15T08:57:23;2.30;99.90
22065;DHT22;11197;53.110;8.468;2024-01-15T08:59:48;2.30;99.90
22065;DHT22;11197;53.110;8.468;2024-01-15T09:02:14;2.30;99.90
22065;DHT22;11197;53.110;8.468;2024-01-15T09:04:41;2.40;99.90
22065;DHT22;11197;53.110;8.468;2024-01-15T09:07:10;2.40;99.90
22065;DHT22;11197;53.110;8.468;2024-01-15T09:09:36;2.40;99.90
22065;DHT22;11197;53.110;8.468;2024-01-15T09:12:02;2.40;99.90
22065;DHT22;11197;53.110;8.468;2024-01-15T09:14:28;2.40;99.90
22065;DHT22;11197;53.110;8.468;2024-01-15T09:16:54;2.40;99.90
22065;DHT22;11197;53.110;8.468;2024-01-15T09:19:20;2.40;99.90
22065;DHT22;11197;53.110;8.468;2024-01-15T09:21:46;2.40;99.90
22065;DHT22;11197;53.110;8.468;2024-01-15T09:24:12;2.40;99.90
22065;DHT22;11197;53.110;8.468;2024-01-15T09:26:38;2.40;99.90
22065;DHT22;11197;53.110;8.468;2024-01-15T09:29:03;2.40;99.90
22065;DHT22;11197;53.110;8.468;2024-01-15T09:31:29;2.40;99.90
22065;DHT22;11197;53.110;8.468;2024-01-15T09:33:55;2.40;99.90
22065;DHT22;11197;53.110;8.468;2024-01-15T09:36:26;2.40;99.90
22065;DHT22;11197;53.110;8.468;2024-01-15T09:38:52;2.40;99.90
22065;DHT22;11197;53.110;8.468;2024-01-15T09:41:18;2.40;99.90
22065;DHT22;11197;53.110;8.468;2024-01-15T09:43:44;2.30;99.90
22065;DHT22;11197;53.110;8.468;2024-01-15T09:46:11;2.40;99.90
22065;DHT22;11197;53.110;8.468;2024-01-15T09:48:37;2.40;99.90
22065;DHT22;11197;53.110;8.468;2024-01-15T09:51:05;2.40;99.90
22065;DHT22;11197;53.110;8.468;2024-01-15T09:53:33;2.40;99.90
22065;DHT22;11197;53.110;8.468;2024-01-15T09:56:00;2.40;99.90
22065;DHT22;11197;53.110;8.468;2024-01-15T09:58:26;2.40;99.90
22065;DHT22;11197;53.110;8.468;2024-01-15T10:00:53;2.40;99.90
22065;DHT22;11197;53.110;8.468;2024-01-15T10:03:19;2.40;99.90
22065;DHT22;11197;53.110;8.468;2024-01-15T10:05:46;2.40;99.90
22065;DHT22;11197;53.110;8.468;2024-01-15T10:08:14;2.40;99.90
22065;DHT22;11197;53.110;8.468;2024-01-15T10:10:40;2.30;99.90
22065;DHT22;11197;53.110;8.468;2024-01-15T10:13:07;2.30;99.90
22065;DHT22;11197;53.110;8.468;2024-01-15T10:15:37;2.30;99.90
22065;DHT22;11197;53.110;8.468;2024-01-15T10:18:03;2.40;99.90
22065;DHT22;11197;53.110;8.468;2024-01-15T10:20:32;2.30;99.90
22065;DHT22;11197;53.110;8.468;2024-01-15T10:22:58;2.40;99.90
22065;DHT22;11197;53.110;8.468;2024-01-15T10:25:24;2.30;99.90
22065;DHT22;11197;53.110;8.468;2024-01-15T10:28:04;2.30;99.90
22065;DHT22;11197;53.110;8.468;2024-01-15T10:30:31;2.30;99.90
22065;DHT22;11197;53.110;8.468;2024-01-15T10:33:04;2.30;99.90
22065;DHT22;11197;53.110;8.468;2024-01-15T10:35:32;2.30;99.90
22065;DHT22;11197;53.110;8.468;2024-01-15T10:37:59;2.30;99.90
22065;DHT22;11197;53.110;8.468;2024-01-15T10:40:25;2.30;99.90
22065;DHT22;11197;53.110;8.468;2024-01-15T10:42:51;2.20;99.90
22065;DHT22;11197;53.110;8.468;2024-01-15T10:45:17;2.30;99.90
22065;DHT22;11197;53.110;8.468;2024-01-15T10:47:43;2.20;99.90
22065;DHT22;11197;53.110;8.468;2024-01-15T10:50:10;2.30;99.90
22065;DHT22;11197;53.110;8.468;2024-01-15T10:52:40;2.30;99.90
22065;DHT22;11197;53.110;8.468;2024-01-15T10:55:09;2.30;99.90
22065;DHT22;11197;53.110;8.468;2024-01-15T10:57:37;2.30;99.90
22065;DHT22;11197;53.110;8.468;2024-01-15T11:00:04;2.30;99.90
22065;DHT22;11197;53.110;8.468;2024-01-15T11:02:35;2.30;99.90
22065;DHT22;11197;53.110;8.468;2024-01-15T11:05:01;2.40;99.90
22065;DHT22;11197;53.110;8.468;2024-01-15T11:07:30;2.40;99.90
22065;DHT22;11197;53.110;8.468;2024-01-15T11:09:56;2.40;99.90
22065;DHT22;11197;53.110;8.468;2024-01-15T11:12:24;2.40;99.90
22065;DHT22;11197;53.110;8.468;2024-01-15T11:14:50;2.40;99.90
22065;DHT22;11197;53.110;8.468;2024-01-15T11:17:17;2.40;99.90
22065;DHT22;11197;53.110;8.468;2024-01-15T11:19:45;2.40;99.90
22065;DHT22;11197;53.110;8.468;2024-01-15T11:25:03;2.40;99.90
22065;DHT22;11197;53.110;8.468;2024-01-15T11:27:46;2.40;99.90
22065;DHT22;11197;53.110;8.468;2024-01-15T11:30:14;2.50;99.90
22065;DHT22;11197;53.110;8.468;2024-01-15T11:32:40;2.50;99.90
22065;DHT22;11197;53.110;8.468;2024-01-15T11:35:07;2.50;99.90
22065;DHT22;11197;53.110;8.468;2024-01-15T11:40:37;2.50;99.90
22065;DHT22;11197;53.110;8.468;2024-01-15T11:43:04;2.50;99.90
22065;DHT22;11197;53.110;8.468;2024-01-15T11:45:31;2.50;99.90
22065;DHT22;11197;53.110;8.468;2024-01-15T11:48:15;2.60;99.90
22065;DHT22;11197;53.110;8.468;2024-01-15T11:50:46;2.60;99.90
22065;DHT22;11197;53.110;8.468;2024-01-15T11:55:45;2.50;99.90
22065;DHT22;11197;53.110;8.468;2024-01-15T11:58:11;2.50;99.90
22065;DHT22;11197;53.110;8.468;2024-01-15T12:00:42;2.50;99.90
22065;DHT22;11197;53.110;8.468;2024-01-15T12:03:08;2.50;99.90
22065;DHT22;11197;53.110;8.468;2024-01-15T12:05:40;2.50;99.90
22065;DHT22;11197;53.110;8.468;2024-01-15T12:08:07;2.50;99.90
22065;DHT22;11197;53.110;8.468;2024-01-15T12:10:40;2.50;99.90
22065;DHT22;11197;53.110;8.468;2024-01-15T12:13:15;2.50;99.90
22065;DHT22;11197;53.110;8.468;2024-01-15T12:15:43;2.50;99.90
22065;DHT22;11197;53.110;8.468;2024-01-15T12:18:17;2.50;99.90
22065;DHT22;11197;53.110;8.468;2024-01-15T12:20:44;2.50;99.90
22065;DHT22;11197;53.110;8.468;2024-01-15T12:23:12;2.60;99.90
22065;DHT22;11197;53.110;8.468;2024-01-15T12:25:42;2.60;99.90
22065;DHT22;11197;53.110;8.468;2024-01-15T12:28:08;2.60;99.90
22065;DHT22;11197;53.110;8.468;2024-01-15T12:30:34;2.60;99.90
22065;DHT22;11197;53.110;8.468;2024-01-15T12:33:02;2.70;99.90
22065;DHT22;11197;53.110;8.468;2024-01-15T12:35:29;2.70;99.90
22065;DHT22;11197;53.110;8.468;2024-01-15T12:37:55;2.60;99.90
22065;DHT22;11197;53.110;8.468;2024-01-15T12:40:22;2.70;99.90
22065;DHT22;11197;53.110;8.468;2024-01-15T12:42:49;2.60;99.90
22065;DHT22;11197;53.110;8.468;2024-01-15T12:45:15;2.70;99.90
22065;DHT22;11197;53.110;8.468;2024-01-15T12:47:41;2.70;99.90
22065;DHT22;11197;53.110;8.468;2024-01-15T12:50:09;2.70;99.90
22065;DHT22;11197;53.110;8.468;2024-01-15T12:52:35;2.70;99.90
22065;DHT22;11197;53.110;8.468;2024-01-15T12:55:05;2.70;99.90
22065;DHT22;11197;53.110;8.468;2024-01-15T12:57:31;2.70;99.90
22065;DHT22;11197;53.110;8.468;2024-01-15T12:59:57;2.70;99.90
22065;DHT22;11197;53.110;8.468;2024-01-15T13:02:23;2.70;99.90
22065;DHT22;11197;53.110;8.468;2024-01-15T13:04:49;2.70;99.90
22065;DHT22;11197;53.110;8.468;2024-01-15T13:07:15;2.70;99.90
22065;DHT22;11197;53.110;8.468;2024-01-15T13:09:41;2.70;99.90
22065;DHT22;11197;53.110;8.468;2024-01-15T13:12:07;2.80;99.90
22065;DHT22;11197;53.110;8.468;2024-01-15T13:14:33;2.80;99.90
22065;DHT22;11197;53.110;8.468;2024-01-15T13:16:59;2.80;99.90
22065;DHT22;11197;53.110;8.468;2024-01-15T13:19:25;2.80;99.90
22065;DHT22;11197;53.110;8.468;2024-01-15T13:21:51;2.80;99.90
22065;DHT22;11197;53.110;8.468;2024-01-15T13:24:18;2.70;99.90
22065;DHT22;11197;53.110;8.468;2024-01-15T13:26:44;2.70;99.90
22065;DHT22;11197;53.110;8.468;2024-01-15T13:29:11;2.70;99.90
22065;DHT22;11197;53.110;8.468;2024-01-15T13:31:37;2.60;99.90
22065;DHT22;11197;53.110;8.468;2024-01-15T13:34:03;2.60;99.90
22065;DHT22;11197;53.110;8.468;2024-01-15T13:36:29;2.50;99.90
22065;DHT22;11197;53.110;8.468;2024-01-15T13:38:55;2.50;99.90
22065;DHT22;11197;53.110;8.468;2024-01-15T13:41:22;2.50;99.90
22065;DHT22;11197;53.110;8.468;2024-01-15T13:43:51;2.40;99.90
22065;DHT22;11197;53.110;8.468;2024-01-15T13:46:19;2.40;99.90
22065;DHT22;11197;53.110;8.468;2024-01-15T13:48:45;2.40;99.90
22065;DHT22;11197;53.110;8.468;2024-01-15T13:51:11;2.40;99.90
22065;DHT22;11197;53.110;8.468;2024-01-15T13:53:40;2.40;99.90
22065;DHT22;11197;53.110;8.468;2024-01-15T13:56:07;2.40;99.90
22065;DHT22;11197;53.110;8.468;2024-01-15T13:58:34;2.40;99.90
22065;DHT22;11197;53.110;8.468;2024-01-15T14:01:00;2.40;99.90
22065;DHT22;11197;53.110;8.468;2024-01-15T14:03:27;2.50;99.90
22065;DHT22;11197;53.110;8.468;2024-01-15T14:05:53;2.50;99.90
22065;DHT22;11197;53.110;8.468;2024-01-15T14:08:18;2.50;99.90
22065;DHT22;11197;53.110;8.468;2024-01-15T14:10:44;2.50;99.90
22065;DHT22;11197;53.110;8.468;2024-01-15T14:13:10;2.40;99.90
22065;DHT22;11197;53.110;8.468;2024-01-15T14:15:36;2.40;99.90
22065;DHT22;11197;53.110;8.468;2024-01-15T14:18:02;2.40;99.90
22065;DHT22;11197;53.110;8.468;2024-01-15T14:20:28;2.40;99.90
22065;DHT22;11197;53.110;8.468;2024-01-15T14:22:54;2.40;99.90
22065;DHT22;11197;53.110;8.468;2024-01-15T14:25:21;2.40;99.90
22065;DHT22;11197;53.110;8.468;2024-01-15T14:27:47;2.40;99.90
22065;DHT22;11197;53.110;8.468;2024-01-15T14:30:13;2.40;99.90
22065;DHT22;11197;53.110;8.468;2024-01-15T14:32:41;2.40;99.90
22065;DHT22;11197;53.110;8.468;2024-01-15T14:35:08;2.40;99.90
22065;DHT22;11197;53.110;8.468;2024-01-15T14:37:39;2.50;99.90
22065;DHT22;11197;53.110;8.468;2024-01-15T14:40:06;2.50;99.90
22065;DHT22;11197;53.110;8.468;2024-01-15T14:42:36;2.50;99.90
22065;DHT22;11197;53.110;8.468;2024-01-15T14:45:04;2.60;99.90
22065;DHT22;11197;53.110;8.468;2024-01-15T14:47:34;2.60;99.90
22065;DHT22;11197;53.110;8.468;2024-01-15T14:50:01;2.60;99.90
22065;DHT22;11197;53.110;8.468;2024-01-15T14:52:27;2.70;99.90
22065;DHT22;11197;53.110;8.468;2024-01-15T14:54:53;2.70;99.90
22065;DHT22;11197;53.110;8.468;2024-01-15T14:57:19;2.70;99.90
22065;DHT22;11197;53.110;8.468;2024-01-15T14:59:46;2.80;99.90
22065;DHT22;11197;53.110;8.468;2024-01-15T15:02:12;2.80;99.90
22065;DHT22;11197;53.110;8.468;2024-01-15T15:04:38;2.80;99.90
22065;DHT22;11197;53.110;8.468;2024-01-15T15:07:04;2.90;99.90
22065;DHT22;11197;53.110;8.468;2024-01-15T15:09:32;2.90;99.90
22065;DHT22;11197;53.110;8.468;2024-01-15T15:11:58;2.90;99.90
22065;DHT22;11197;53.110;8.468;2024-01-15T15:14:24;2.90;99.90
22065;DHT22;11197;53.110;8.468;2024-01-15T15:16:50;2.90;99.90
22065;DHT22;11197;53.110;8.468;2024-01-15T15:19:16;2.90;99.90
22065;DHT22;11197;53.110;8.468;2024-01-15T15:21:43;2.90;99.90
22065;DHT22;11197;53.110;8.468;2024-01-15T15:24:09;3.00;99.90
22065;DHT22;11197;53.110;8.468;2024-01-15T15:26:36;2.90;99.90
22065;DHT22;11197;53.110;8.468;2024-01-15T15:29:02;2.90;99.90
22065;DHT22;11197;53.110;8.468;2024-01-15T15:31:28;2.90;99.90
22065;DHT22;11197;53.110;8.468;2024-01-15T15:33:54;2.90;99.90
22065;DHT22;11197;53.110;8.468;2024-01-15T15:36:19;2.90;99.90
22065;DHT22;11197;53.110;8.468;2024-01-15T15:38:45;2.90;99.90
22065;DHT22;11197;53.110;8.468;2024-01-15T15:41:11;2.90;99.90
22065;DHT22;11197;53.110;8.468;2024-01-15T15:43:37;2.90;99.90
22065;DHT22;11197;53.110;8.468;2024-01-15T15:46:03;2.90;99.90
22065;DHT22;11197;53.110;8.468;2024-01-15T15:48:30;2.90;99.90